sensor_id;sensor_type;location;lat;lon;timestamp;P1;durP1;ratioP1;P2;durP2;ratioP2
59416;SDS011;45222;52.458;20.914;2023-03-12T00:00:05;10.10;;;4.30;;
59416;SDS011;45222;52.458;20.914;2023-03-12T00:07:58;9.90;;;3.70;;
59416;SDS011;45222;52.458;20.914;2023-03-12T00:11:43;11.10;;;3.30;;
59416;SDS011;45222;52.458;20.914;2023-03-12T00:15:28;9.10;;;3.70;;
59416;SDS011;45222;52.458;20.914;2023-03-12T00:19:14;10.00;;;4.20;;
59416;SDS011;45222;52.458;20.914;2023-03-12T00:22:59;9.70;;;4.10;;
59416;SDS011;45222;52.458;20.914;2023-03-12T00:26:45;10.50;;;5.20;;
59416;SDS011;45222;52.458;20.914;2023-03-12T00:30:30;14.80;;;6.20;;
59416;SDS011;45222;52.458;20.914;2023-03-12T00:34:15;14.10;;;9.10;;
59416;SDS011;45222;52.458;20.914;2023-03-12T00:38:01;10.80;;;5.20;;
59416;SDS011;45222;52.458;20.914;2023-03-12T00:41:46;15.30;;;10.20;;
59416;SDS011;45222;52.458;20.914;2023-03-12T00:45:31;10.50;;;4.40;;
59416;SDS011;45222;52.458;20.914;2023-03-12T00:49:17;10.50;;;4.40;;
59416;SDS011;45222;52.458;20.914;2023-03-12T00:53:02;12.10;;;5.40;;
59416;SDS011;45222;52.458;20.914;2023-03-12T00:56:47;13.80;;;9.30;;
59416;SDS011;45222;52.458;20.914;2023-03-12T01:00:35;11.60;;;4.70;;
59416;SDS011;45222;52.458;20.914;2023-03-12T01:04:20;12.80;;;9.10;;
59416;SDS011;45222;52.458;20.914;2023-03-12T01:08:06;9.70;;;4.40;;
59416;SDS011;45222;52.458;20.914;2023-03-12T01:11:52;14.50;;;5.40;;
59416;SDS011;45222;52.458;20.914;2023-03-12T01:15:37;14.00;;;10.60;;
59416;SDS011;45222;52.458;20.914;2023-03-12T01:19:22;10.00;;;4.10;;
59416;SDS011;45222;52.458;20.914;2023-03-12T01:23:08;13.30;;;9.70;;
59416;SDS011;45222;52.458;20.914;2023-03-12T01:26:53;10.40;;;4.20;;
59416;SDS011;45222;52.458;20.914;2023-03-12T01:30:40;14.40;;;4.90;;
59416;SDS011;45222;52.458;20.914;2023-03-12T01:34:40;16.10;;;12.70;;
59416;SDS011;45222;52.458;20.914;2023-03-12T01:38:26;13.10;;;5.00;;
59416;SDS011;45222;52.458;20.914;2023-03-12T01:42:11;12.10;;;4.10;;
59416;SDS011;45222;52.458;20.914;2023-03-12T01:46:05;13.20;;;5.70;;
59416;SDS011;45222;52.458;20.914;2023-03-12T01:50:05;12.60;;;6.30;;
59416;SDS011;45222;52.458;20.914;2023-03-12T01:53:51;11.80;;;5.00;;
59416;SDS011;45222;52.458;20.914;2023-03-12T01:57:40;15.60;;;11.00;;
59416;SDS011;45222;52.458;20.914;2023-03-12T02:01:29;10.90;;;4.60;;
59416;SDS011;45222;52.458;20.914;2023-03-12T02:05:16;16.00;;;5.60;;
59416;SDS011;45222;52.458;20.914;2023-03-12T02:09:08;14.20;;;9.00;;
59416;SDS011;45222;52.458;20.914;2023-03-12T02:12:55;9.70;;;4.90;;
59416;SDS011;45222;52.458;20.914;2023-03-12T02:16:40;14.40;;;10.10;;
59416;SDS011;45222;52.458;20.914;2023-03-12T02:20:29;12.30;;;5.10;;
59416;SDS011;45222;52.458;20.914;2023-03-12T02:24:24;12.60;;;5.10;;
59416;SDS011;45222;52.458;20.914;2023-03-12T02:28:17;14.00;;;9.10;;
59416;SDS011;45222;52.458;20.914;2023-03-12T02:32:06;12.00;;;4.50;;
59416;SDS011;45222;52.458;20.914;2023-03-12T02:35:58;10.20;;;4.50;;
59416;SDS011;45222;52.458;20.914;2023-03-12T02:39:45;12.20;;;5.00;;
59416;SDS011;45222;52.458;20.914;2023-03-12T02:43:37;11.10;;;4.50;;
59416;SDS011;45222;52.458;20.914;2023-03-12T02:47:23;13.70;;;9.00;;
59416;SDS011;45222;52.458;20.914;2023-03-12T02:51:08;10.40;;;4.90;;
59416;SDS011;45222;52.458;20.914;2023-03-12T02:54:54;13.10;;;9.40;;
59416;SDS011;45222;52.458;20.914;2023-03-12T02:58:39;11.40;;;4.80;;
59416;SDS011;45222;52.458;20.914;2023-03-12T03:02:25;15.10;;;10.50;;
59416;SDS011;45222;52.458;20.914;2023-03-12T03:06:10;9.40;;;4.00;;
59416;SDS011;45222;52.458;20.914;2023-03-12T03:09:56;15.00;;;10.80;;
59416;SDS011;45222;52.458;20.914;2023-03-12T03:13:46;13.00;;;4.90;;
59416;SDS011;45222;52.458;20.914;2023-03-12T03:17:31;15.90;;;10.00;;
59416;SDS011;45222;52.458;20.914;2023-03-12T03:21:16;11.80;;;4.60;;
59416;SDS011;45222;52.458;20.914;2023-03-12T03:25:03;14.30;;;11.00;;
59416;SDS011;45222;52.458;20.914;2023-03-12T03:28:49;11.30;;;4.70;;
59416;SDS011;45222;52.458;20.914;2023-03-12T03:32:35;13.30;;;5.90;;
59416;SDS011;45222;52.458;20.914;2023-03-12T03:36:21;12.60;;;4.80;;
59416;SDS011;45222;52.458;20.914;2023-03-12T03:40:08;13.20;;;8.60;;
59416;SDS011;45222;52.458;20.914;2023-03-12T03:43:55;9.90;;;3.70;;
59416;SDS011;45222;52.458;20.914;2023-03-12T03:47:41;13.50;;;9.20;;
59416;SDS011;45222;52.458;20.914;2023-03-12T03:51:26;10.90;;;4.40;;
59416;SDS011;45222;52.458;20.914;2023-03-12T03:55:12;9.80;;;4.50;;
59416;SDS011;45222;52.458;20.914;2023-03-12T03:58:57;9.50;;;4.20;;
59416;SDS011;45222;52.458;20.914;2023-03-12T04:02:44;10.50;;;5.00;;
59416;SDS011;45222;52.458;20.914;2023-03-12T04:06:29;8.00;;;3.80;;
59416;SDS011;45222;52.458;20.914;2023-03-12T04:10:14;9.30;;;4.40;;
59416;SDS011;45222;52.458;20.914;2023-03-12T04:13:59;7.90;;;4.00;;
59416;SDS011;45222;52.458;20.914;2023-03-12T04:17:44;10.70;;;7.50;;
59416;SDS011;45222;52.458;20.914;2023-03-12T04:21:29;9.40;;;4.50;;
59416;SDS011;45222;52.458;20.914;2023-03-12T04:25:15;11.20;;;6.40;;
59416;SDS011;45222;52.458;20.914;2023-03-12T04:29:00;7.30;;;3.50;;
59416;SDS011;45222;52.458;20.914;2023-03-12T04:32:46;10.00;;;3.60;;
59416;SDS011;45222;52.458;20.914;2023-03-12T04:36:31;10.20;;;6.80;;
59416;SDS011;45222;52.458;20.914;2023-03-12T04:40:16;10.20;;;6.00;;
59416;SDS011;45222;52.458;20.914;2023-03-12T04:44:02;9.50;;;6.10;;
59416;SDS011;45222;52.458;20.914;2023-03-12T04:47:48;9.80;;;6.60;;
59416;SDS011;45222;52.458;20.914;2023-03-12T04:51:33;10.30;;;6.60;;
59416;SDS011;45222;52.458;20.914;2023-03-12T04:55:18;9.50;;;6.00;;
59416;SDS011;45222;52.458;20.914;2023-03-12T04:59:03;7.40;;;3.70;;
59416;SDS011;45222;52.458;20.914;2023-03-12T05:02:49;8.40;;;3.70;;
59416;SDS011;45222;52.458;20.914;2023-03-12T05:06:35;9.50;;;6.70;;
59416;SDS011;45222;52.458;20.914;2023-03-12T05:10:20;7.90;;;3.80;;
59416;SDS011;45222;52.458;20.914;2023-03-12T05:14:06;7.80;;;3.30;;
59416;SDS011;45222;52.458;20.914;2023-03-12T05:17:51;11.50;;;6.30;;
59416;SDS011;45222;52.458;20.914;2023-03-12T05:21:38;10.50;;;4.00;;
59416;SDS011;45222;52.458;20.914;2023-03-12T05:25:23;10.50;;;5.90;;
59416;SDS011;45222;52.458;20.914;2023-03-12T05:29:09;7.50;;;3.40;;
59416;SDS011;45222;52.458;20.914;2023-03-12T05:32:54;11.50;;;6.10;;
59416;SDS011;45222;52.458;20.914;2023-03-12T05:36:39;8.50;;;5.30;;
59416;SDS011;45222;52.458;20.914;2023-03-12T05:40:25;7.80;;;3.70;;
59416;SDS011;45222;52.458;20.914;2023-03-12T05:44:10;10.10;;;5.80;;
59416;SDS011;45222;52.458;20.914;2023-03-12T05:47:58;12.50;;;6.10;;
59416;SDS011;45222;52.458;20.914;2023-03-12T05:51:43;10.80;;;6.80;;
59416;SDS011;45222;52.458;20.914;2023-03-12T05:55:33;7.80;;;3.90;;
59416;SDS011;45222;52.458;20.914;2023-03-12T05:59:19;8.40;;;3.60;;
59416;SDS011;45222;52.458;20.914;2023-03-12T06:03:04;8.10;;;3.10;;
59416;SDS011;45222;52.458;20.914;2023-03-12T06:06:49;8.60;;;3.70;;
59416;SDS011;45222;52.458;20.914;2023-03-12T06:10:36;10.30;;;6.10;;
59416;SDS011;45222;52.458;20.914;2023-03-12T06:14:22;8.60;;;3.40;;
59416;SDS011;45222;52.458;20.914;2023-03-12T06:18:07;10.00;;;3.90;;
59416;SDS011;45222;52.458;20.914;2023-03-12T06:21:53;10.80;;;5.50;;
59416;SDS011;45222;52.458;20.914;2023-03-12T06:25:38;6.90;;;2.90;;
59416;SDS011;45222;52.458;20.914;2023-03-12T06:29:23;8.30;;;3.40;;
59416;SDS011;45222;52.458;20.914;2023-03-12T06:33:08;9.90;;;4.50;;
59416;SDS011;45222;52.458;20.914;2023-03-12T06:36:54;8.80;;;5.00;;
59416;SDS011;45222;52.458;20.914;2023-03-12T06:40:39;7.30;;;3.00;;
59416;SDS011;45222;52.458;20.914;2023-03-12T06:44:25;6.80;;;2.90;;
59416;SDS011;45222;52.458;20.914;2023-03-12T06:48:10;8.90;;;3.00;;
59416;SDS011;45222;52.458;20.914;2023-03-12T06:51:55;7.80;;;3.90;;
59416;SDS011;45222;52.458;20.914;2023-03-12T06:55:41;7.90;;;2.80;;
59416;SDS011;45222;52.458;20.914;2023-03-12T06:59:27;6.90;;;2.70;;
59416;SDS011;45222;52.458;20.914;2023-03-12T07:03:12;6.30;;;2.30;;
59416;SDS011;45222;52.458;20.914;2023-03-12T07:06:58;5.50;;;2.40;;
59416;SDS011;45222;52.458;20.914;2023-03-12T07:10:43;7.20;;;2.60;;
59416;SDS011;45222;52.458;20.914;2023-03-12T07:14:29;6.20;;;2.70;;
59416;SDS011;45222;52.458;20.914;2023-03-12T07:18:15;6.10;;;2.20;;
59416;SDS011;45222;52.458;20.914;2023-03-12T07:22:01;5.30;;;2.10;;
59416;SDS011;45222;52.458;20.914;2023-03-12T07:25:46;8.10;;;2.50;;
59416;SDS011;45222;52.458;20.914;2023-03-12T07:29:32;5.90;;;2.60;;
59416;SDS011;45222;52.458;20.914;2023-03-12T07:33:18;7.20;;;2.90;;
59416;SDS011;45222;52.458;20.914;2023-03-12T07:37:04;5.70;;;2.40;;
59416;SDS011;45222;52.458;20.914;2023-03-12T07:40:50;8.00;;;3.30;;
59416;SDS011;45222;52.458;20.914;2023-03-12T07:44:36;6.60;;;2.90;;
59416;SDS011;45222;52.458;20.914;2023-03-12T07:48:21;4.40;;;1.70;;
59416;SDS011;45222;52.458;20.914;2023-03-12T07:52:07;7.10;;;3.50;;
59416;SDS011;45222;52.458;20.914;2023-03-12T07:55:54;5.50;;;1.50;;
59416;SDS011;45222;52.458;20.914;2023-03-12T07:59:39;5.60;;;2.30;;
59416;SDS011;45222;52.458;20.914;2023-03-12T08:03:25;7.00;;;3.40;;
59416;SDS011;45222;52.458;20.914;2023-03-12T08:07:10;8.00;;;2.80;;
59416;SDS011;45222;52.458;20.914;2023-03-12T08:10:56;6.30;;;2.80;;
59416;SDS011;45222;52.458;20.914;2023-03-12T08:14:42;7.00;;;2.70;;
59416;SDS011;45222;52.458;20.914;2023-03-12T08:18:29;5.80;;;1.60;;
59416;SDS011;45222;52.458;20.914;2023-03-12T08:22:14;3.90;;;1.80;;
59416;SDS011;45222;52.458;20.914;2023-03-12T08:26:00;8.10;;;2.50;;
59416;SDS011;45222;52.458;20.914;2023-03-12T08:29:45;7.60;;;3.10;;
59416;SDS011;45222;52.458;20.914;2023-03-12T08:33:31;3.20;;;1.40;;
59416;SDS011;45222;52.458;20.914;2023-03-12T08:37:16;4.80;;;1.90;;
59416;SDS011;45222;52.458;20.914;2023-03-12T08:41:01;6.70;;;2.30;;
59416;SDS011;45222;52.458;20.914;2023-03-12T08:44:47;7.10;;;2.80;;
59416;SDS011;45222;52.458;20.914;2023-03-12T08:48:32;6.60;;;2.50;;
59416;SDS011;45222;52.458;20.914;2023-03-12T08:52:18;4.80;;;2.00;;
59416;SDS011;45222;52.458;20.914;2023-03-12T08:56:04;8.00;;;3.00;;
59416;SDS011;45222;52.458;20.914;2023-03-12T08:59:51;6.70;;;2.30;;
59416;SDS011;45222;52.458;20.914;2023-03-12T09:03:36;5.60;;;2.00;;
59416;SDS011;45222;52.458;20.914;2023-03-12T09:07:23;5.70;;;1.40;;
59416;SDS011;45222;52.458;20.914;2023-03-12T09:11:09;8.00;;;2.90;;
59416;SDS011;45222;52.458;20.914;2023-03-12T09:14:55;7.50;;;3.30;;
59416;SDS011;45222;52.458;20.914;2023-03-12T09:18:41;8.20;;;1.90;;
59416;SDS011;45222;52.458;20.914;2023-03-12T09:22:26;7.80;;;2.90;;
59416;SDS011;45222;52.458;20.914;2023-03-12T09:26:13;7.60;;;3.00;;
59416;SDS011;45222;52.458;20.914;2023-03-12T09:29:58;9.40;;;2.70;;
59416;SDS011;45222;52.458;20.914;2023-03-12T09:33:44;6.90;;;2.20;;
59416;SDS011;45222;52.458;20.914;2023-03-12T09:37:30;5.10;;;1.40;;
59416;SDS011;45222;52.458;20.914;2023-03-12T09:41:17;12.60;;;4.00;;
59416;SDS011;45222;52.458;20.914;2023-03-12T09:45:06;13.30;;;3.70;;
59416;SDS011;45222;52.458;20.914;2023-03-12T09:48:57;7.70;;;2.50;;
59416;SDS011;45222;52.458;20.914;2023-03-12T09:52:49;6.80;;;2.40;;
59416;SDS011;45222;52.458;20.914;2023-03-12T09:56:40;6.00;;;1.60;;
59416;SDS011;45222;52.458;20.914;2023-03-12T10:00:28;6.00;;;2.30;;
59416;SDS011;45222;52.458;20.914;2023-03-12T10:08:05;7.10;;;2.90;;
59416;SDS011;45222;52.458;20.914;2023-03-12T10:11:57;6.70;;;2.50;;
59416;SDS011;45222;52.458;20.914;2023-03-12T10:15:52;9.10;;;3.40;;
59416;SDS011;45222;52.458;20.914;2023-03-12T10:19:57;6.40;;;2.80;;
59416;SDS011;45222;52.458;20.914;2023-03-12T10:24:06;8.40;;;2.80;;
59416;SDS011;45222;52.458;20.914;2023-03-12T10:28:09;3.90;;;1.30;;
59416;SDS011;45222;52.458;20.914;2023-03-12T10:31:59;6.90;;;2.50;;
59416;SDS011;45222;52.458;20.914;2023-03-12T10:35:48;7.90;;;2.50;;
59416;SDS011;45222;52.458;20.914;2023-03-12T10:39:35;7.80;;;1.50;;
59416;SDS011;45222;52.458;20.914;2023-03-12T10:43:21;8.10;;;2.20;;
59416;SDS011;45222;52.458;20.914;2023-03-12T10:47:09;11.40;;;3.30;;
59416;SDS011;45222;52.458;20.914;2023-03-12T10:51:11;6.10;;;2.30;;
59416;SDS011;45222;52.458;20.914;2023-03-12T10:54:57;4.30;;;1.60;;
59416;SDS011;45222;52.458;20.914;2023-03-12T10:58:56;8.50;;;2.40;;
59416;SDS011;45222;52.458;20.914;2023-03-12T11:02:43;12.60;;;5.50;;
59416;SDS011;45222;52.458;20.914;2023-03-12T11:06:29;10.60;;;4.70;;
59416;SDS011;45222;52.458;20.914;2023-03-12T11:10:19;14.80;;;7.20;;
59416;SDS011;45222;52.458;20.914;2023-03-12T11:14:07;9.00;;;3.80;;
59416;SDS011;45222;52.458;20.914;2023-03-12T11:22:08;12.70;;;5.70;;
59416;SDS011;45222;52.458;20.914;2023-03-12T11:25:56;12.70;;;3.90;;
59416;SDS011;45222;52.458;20.914;2023-03-12T11:29:44;11.70;;;2.60;;
59416;SDS011;45222;52.458;20.914;2023-03-12T11:33:33;12.40;;;4.40;;
59416;SDS011;45222;52.458;20.914;2023-03-12T11:37:22;11.30;;;4.30;;
59416;SDS011;45222;52.458;20.914;2023-03-12T11:41:19;8.40;;;3.10;;
59416;SDS011;45222;52.458;20.914;2023-03-12T11:45:15;10.90;;;4.30;;
59416;SDS011;45222;52.458;20.914;2023-03-12T11:49:13;11.50;;;4.00;;
59416;SDS011;45222;52.458;20.914;2023-03-12T11:53:15;9.30;;;3.40;;
59416;SDS011;45222;52.458;20.914;2023-03-12T11:57:13;10.60;;;5.70;;
59416;SDS011;45222;52.458;20.914;2023-03-12T12:01:07;7.70;;;2.90;;
59416;SDS011;45222;52.458;20.914;2023-03-12T12:04:59;9.90;;;3.50;;
59416;SDS011;45222;52.458;20.914;2023-03-12T12:09:08;10.10;;;3.50;;
59416;SDS011;45222;52.458;20.914;2023-03-12T12:13:03;11.10;;;4.90;;
59416;SDS011;45222;52.458;20.914;2023-03-12T12:16:57;8.90;;;3.20;;
59416;SDS011;45222;52.458;20.914;2023-03-12T12:20:50;8.90;;;3.50;;
59416;SDS011;45222;52.458;20.914;2023-03-12T12:24:46;8.00;;;2.70;;
59416;SDS011;45222;52.458;20.914;2023-03-12T12:28:53;7.20;;;2.10;;
59416;SDS011;45222;52.458;20.914;2023-03-12T12:37:02;9.90;;;3.40;;
59416;SDS011;45222;52.458;20.914;2023-03-12T12:41:08;7.40;;;2.80;;
59416;SDS011;45222;52.458;20.914;2023-03-12T12:44:56;7.40;;;1.90;;
59416;SDS011;45222;52.458;20.914;2023-03-12T12:48:47;7.30;;;2.50;;
59416;SDS011;45222;52.458;20.914;2023-03-12T12:52:36;9.30;;;2.90;;
59416;SDS011;45222;52.458;20.914;2023-03-12T12:56:23;9.70;;;3.80;;
59416;SDS011;45222;52.458;20.914;2023-03-12T13:00:18;10.40;;;3.60;;
59416;SDS011;45222;52.458;20.914;2023-03-12T13:04:10;8.40;;;2.90;;
59416;SDS011;45222;52.458;20.914;2023-03-12T13:07:58;8.60;;;3.00;;
59416;SDS011;45222;52.458;20.914;2023-03-12T13:11:44;4.60;;;1.70;;
59416;SDS011;45222;52.458;20.914;2023-03-12T13:15:34;7.90;;;3.40;;
59416;SDS011;45222;52.458;20.914;2023-03-12T13:19:26;9.90;;;4.20;;
59416;SDS011;45222;52.458;20.914;2023-03-12T13:23:24;7.80;;;3.30;;
59416;SDS011;45222;52.458;20.914;2023-03-12T13:27:19;7.00;;;2.10;;
59416;SDS011;45222;52.458;20.914;2023-03-12T13:35:31;9.60;;;3.10;;
59416;SDS011;45222;52.458;20.914;2023-03-12T13:39:26;8.50;;;3.40;;
59416;SDS011;45222;52.458;20.914;2023-03-12T13:43:14;9.00;;;3.20;;
59416;SDS011;45222;52.458;20.914;2023-03-12T13:47:19;10.90;;;4.60;;
59416;SDS011;45222;52.458;20.914;2023-03-12T13:51:10;8.60;;;2.90;;
59416;SDS011;45222;52.458;20.914;2023-03-12T13:55:00;8.00;;;2.70;;
59416;SDS011;45222;52.458;20.914;2023-03-12T13:58:59;8.00;;;3.20;;
59416;SDS011;45222;52.458;20.914;2023-03-12T14:02:47;9.60;;;4.00;;
59416;SDS011;45222;52.458;20.914;2023-03-12T14:06:44;8.50;;;3.10;;
59416;SDS011;45222;52.458;20.914;2023-03-12T14:10:48;8.20;;;2.80;;
59416;SDS011;45222;52.458;20.914;2023-03-12T14:18:51;8.80;;;3.90;;
59416;SDS011;45222;52.458;20.914;2023-03-12T14:22:37;9.40;;;4.00;;
59416;SDS011;45222;52.458;20.914;2023-03-12T14:26:27;8.10;;;3.60;;
59416;SDS011;45222;52.458;20.914;2023-03-12T14:30:17;8.80;;;3.10;;
59416;SDS011;45222;52.458;20.914;2023-03-12T14:34:07;8.30;;;3.70;;
59416;SDS011;45222;52.458;20.914;2023-03-12T14:38:01;7.50;;;3.00;;
59416;SDS011;45222;52.458;20.914;2023-03-12T14:41:50;10.30;;;4.10;;
59416;SDS011;45222;52.458;20.914;2023-03-12T14:45:39;7.90;;;3.10;;
59416;SDS011;45222;52.458;20.914;2023-03-12T14:49:25;8.10;;;3.40;;
59416;SDS011;45222;52.458;20.914;2023-03-12T14:53:12;7.20;;;3.00;;
59416;SDS011;45222;52.458;20.914;2023-03-12T14:57:02;8.00;;;3.10;;
59416;SDS011;45222;52.458;20.914;2023-03-12T15:00:54;10.30;;;3.70;;
59416;SDS011;45222;52.458;20.914;2023-03-12T15:04:40;7.40;;;3.10;;
59416;SDS011;45222;52.458;20.914;2023-03-12T15:08:27;11.90;;;5.20;;
59416;SDS011;45222;52.458;20.914;2023-03-12T15:12:17;9.40;;;4.00;;
59416;SDS011;45222;52.458;20.914;2023-03-12T15:16:04;8.90;;;4.10;;
59416;SDS011;45222;52.458;20.914;2023-03-12T15:19:51;7.10;;;3.10;;
59416;SDS011;45222;52.458;20.914;2023-03-12T15:23:39;7.60;;;3.30;;
59416;SDS011;45222;52.458;20.914;2023-03-12T15:27:32;7.10;;;3.10;;
59416;SDS011;45222;52.458;20.914;2023-03-12T15:31:17;11.00;;;4.20;;
59416;SDS011;45222;52.458;20.914;2023-03-12T15:35:10;11.20;;;3.50;;
59416;SDS011;45222;52.458;20.914;2023-03-12T15:38:57;9.30;;;2.80;;
59416;SDS011;45222;52.458;20.914;2023-03-12T15:42:45;7.20;;;2.30;;
59416;SDS011;45222;52.458;20.914;2023-03-12T15:46:31;11.00;;;4.10;;
59416;SDS011;45222;52.458;20.914;2023-03-12T15:50:19;9.70;;;3.90;;
59416;SDS011;45222;52.458;20.914;2023-03-12T15:54:20;7.90;;;3.60;;
59416;SDS011;45222;52.458;20.914;2023-03-12T16:02:12;6.80;;;2.30;;
59416;SDS011;45222;52.458;20.914;2023-03-12T16:06:18;10.50;;;3.90;;
59416;SDS011;45222;52.458;20.914;2023-03-12T16:10:06;11.40;;;5.20;;
59416;SDS011;45222;52.458;20.914;2023-03-12T16:17:41;9.10;;;2.70;;
59416;SDS011;45222;52.458;20.914;2023-03-12T16:21:27;12.20;;;5.10;;
59416;SDS011;45222;52.458;20.914;2023-03-12T16:25:12;11.10;;;5.40;;
59416;SDS011;45222;52.458;20.914;2023-03-12T16:28:58;9.70;;;3.50;;
59416;SDS011;45222;52.458;20.914;2023-03-12T16:32:43;17.00;;;7.80;;
59416;SDS011;45222;52.458;20.914;2023-03-12T16:36:29;17.70;;;9.00;;
59416;SDS011;45222;52.458;20.914;2023-03-12T16:40:14;13.70;;;5.20;;
59416;SDS011;45222;52.458;20.914;2023-03-12T16:44:00;26.80;;;13.40;;
59416;SDS011;45222;52.458;20.914;2023-03-12T16:47:51;20.60;;;10.90;;
59416;SDS011;45222;52.458;20.914;2023-03-12T16:51:40;15.20;;;9.30;;
59416;SDS011;45222;52.458;20.914;2023-03-12T16:55:27;15.90;;;9.30;;
59416;SDS011;45222;52.458;20.914;2023-03-12T16:59:14;16.20;;;10.50;;
59416;SDS011;45222;52.458;20.914;2023-03-12T17:03:06;12.90;;;5.40;;
59416;SDS011;45222;52.458;20.914;2023-03-12T17:06:56;17.70;;;11.80;;
59416;SDS011;45222;52.458;20.914;2023-03-12T17:10:41;19.60;;;6.10;;
59416;SDS011;45222;52.458;20.914;2023-03-12T17:14:27;17.80;;;5.80;;
59416;SDS011;45222;52.458;20.914;2023-03-12T17:18:14;21.50;;;10.80;;
59416;SDS011;45222;52.458;20.914;2023-03-12T17:22:00;23.30;;;6.70;;
59416;SDS011;45222;52.458;20.914;2023-03-12T17:25:46;21.70;;;11.40;;
59416;SDS011;45222;52.458;20.914;2023-03-12T17:29:31;21.10;;;6.70;;
59416;SDS011;45222;52.458;20.914;2023-03-12T17:33:17;18.80;;;7.60;;
59416;SDS011;45222;52.458;20.914;2023-03-12T17:37:02;18.00;;;9.30;;
59416;SDS011;45222;52.458;20.914;2023-03-12T17:40:48;17.20;;;8.80;;
59416;SDS011;45222;52.458;20.914;2023-03-12T17:44:33;18.40;;;9.70;;
59416;SDS011;45222;52.458;20.914;2023-03-12T17:48:19;15.40;;;5.10;;
59416;SDS011;45222;52.458;20.914;2023-03-12T17:52:05;14.80;;;6.10;;
59416;SDS011;45222;52.458;20.914;2023-03-12T17:55:50;23.00;;;13.10;;
59416;SDS011;45222;52.458;20.914;2023-03-12T17:59:36;26.00;;;15.50;;
59416;SDS011;45222;52.458;20.914;2023-03-12T18:03:21;25.00;;;15.50;;
59416;SDS011;45222;52.458;20.914;2023-03-12T18:07:07;28.00;;;15.70;;
59416;SDS011;45222;52.458;20.914;2023-03-12T18:10:53;22.10;;;8.00;;
59416;SDS011;45222;52.458;20.914;2023-03-12T18:14:39;25.40;;;13.70;;
59416;SDS011;45222;52.458;20.914;2023-03-12T18:18:24;20.20;;;6.90;;
59416;SDS011;45222;52.458;20.914;2023-03-12T18:22:10;20.80;;;12.20;;
59416;SDS011;45222;52.458;20.914;2023-03-12T18:25:57;18.40;;;6.50;;
59416;SDS011;45222;52.458;20.914;2023-03-12T18:29:42;16.60;;;7.30;;
59416;SDS011;45222;52.458;20.914;2023-03-12T18:33:27;19.80;;;11.30;;
59416;SDS011;45222;52.458;20.914;2023-03-12T18:37:13;16.10;;;5.80;;
59416;SDS011;45222;52.458;20.914;2023-03-12T18:41:03;21.40;;;12.30;;
59416;SDS011;45222;52.458;20.914;2023-03-12T18:44:50;15.70;;;5.20;;
59416;SDS011;45222;52.458;20.914;2023-03-12T18:48:35;17.20;;;6.40;;
59416;SDS011;45222;52.458;20.914;2023-03-12T18:52:21;17.30;;;8.00;;
59416;SDS011;45222;52.458;20.914;2023-03-12T18:56:06;21.80;;;8.80;;
59416;SDS011;45222;52.458;20.914;2023-03-12T18:59:52;32.20;;;20.20;;
59416;SDS011;45222;52.458;20.914;2023-03-12T19:03:37;31.00;;;20.20;;
59416;SDS011;45222;52.458;20.914;2023-03-12T19:07:23;29.70;;;10.70;;
59416;SDS011;45222;52.458;20.914;2023-03-12T19:11:09;36.20;;;25.30;;
59416;SDS011;45222;52.458;20.914;2023-03-12T19:14:56;31.50;;;14.70;;
59416;SDS011;45222;52.458;20.914;2023-03-12T19:18:41;41.80;;;18.60;;
59416;SDS011;45222;52.458;20.914;2023-03-12T19:22:27;48.10;;;20.90;;
59416;SDS011;45222;52.458;20.914;2023-03-12T19:26:12;41.10;;;27.20;;
59416;SDS011;45222;52.458;20.914;2023-03-12T19:29:58;33.30;;;14.10;;
59416;SDS011;45222;52.458;20.914;2023-03-12T19:33:43;30.10;;;12.90;;
59416;SDS011;45222;52.458;20.914;2023-03-12T19:37:29;34.50;;;21.70;;
59416;SDS011;45222;52.458;20.914;2023-03-12T19:41:14;30.10;;;12.20;;
59416;SDS011;45222;52.458;20.914;2023-03-12T19:45:00;36.00;;;13.10;;
59416;SDS011;45222;52.458;20.914;2023-03-12T19:48:45;55.60;;;36.70;;
59416;SDS011;45222;52.458;20.914;2023-03-12T19:52:30;41.50;;;17.60;;
59416;SDS011;45222;52.458;20.914;2023-03-12T19:56:15;47.30;;;36.60;;
59416;SDS011;45222;52.458;20.914;2023-03-12T20:00:01;44.90;;;34.10;;
59416;SDS011;45222;52.458;20.914;2023-03-12T20:03:51;37.40;;;18.00;;
59416;SDS011;45222;52.458;20.914;2023-03-12T20:07:36;40.50;;;29.40;;
59416;SDS011;45222;52.458;20.914;2023-03-12T20:11:22;38.60;;;28.40;;
59416;SDS011;45222;52.458;20.914;2023-03-12T20:15:08;37.00;;;16.60;;
59416;SDS011;45222;52.458;20.914;2023-03-12T20:18:53;35.50;;;18.30;;
59416;SDS011;45222;52.458;20.914;2023-03-12T20:22:39;40.10;;;17.60;;
59416;SDS011;45222;52.458;20.914;2023-03-12T20:26:24;46.70;;;18.60;;
59416;SDS011;45222;52.458;20.914;2023-03-12T20:30:11;34.30;;;15.40;;
59416;SDS011;45222;52.458;20.914;2023-03-12T20:33:57;30.60;;;13.20;;
59416;SDS011;45222;52.458;20.914;2023-03-12T20:37:42;28.60;;;18.20;;
59416;SDS011;45222;52.458;20.914;2023-03-12T20:41:28;27.00;;;17.30;;
59416;SDS011;45222;52.458;20.914;2023-03-12T20:45:13;21.50;;;8.70;;
59416;SDS011;45222;52.458;20.914;2023-03-12T20:48:59;25.50;;;10.80;;
59416;SDS011;45222;52.458;20.914;2023-03-12T20:52:44;38.40;;;23.00;;
59416;SDS011;45222;52.458;20.914;2023-03-12T20:56:29;23.70;;;10.10;;
59416;SDS011;45222;52.458;20.914;2023-03-12T21:00:15;19.80;;;9.80;;
59416;SDS011;45222;52.458;20.914;2023-03-12T21:04:04;25.10;;;14.90;;
59416;SDS011;45222;52.458;20.914;2023-03-12T21:07:50;21.80;;;8.60;;
59416;SDS011;45222;52.458;20.914;2023-03-12T21:11:36;26.00;;;9.80;;
59416;SDS011;45222;52.458;20.914;2023-03-12T21:15:22;40.50;;;20.00;;
59416;SDS011;45222;52.458;20.914;2023-03-12T21:19:07;49.30;;;22.40;;
59416;SDS011;45222;52.458;20.914;2023-03-12T21:22:53;40.90;;;11.40;;
59416;SDS011;45222;52.458;20.914;2023-03-12T21:26:38;28.40;;;9.60;;
59416;SDS011;45222;52.458;20.914;2023-03-12T21:30:23;48.30;;;21.70;;
59416;SDS011;45222;52.458;20.914;2023-03-12T21:34:09;41.80;;;21.90;;
59416;SDS011;45222;52.458;20.914;2023-03-12T21:37:54;39.70;;;20.10;;
59416;SDS011;45222;52.458;20.914;2023-03-12T21:41:39;25.70;;;10.10;;
59416;SDS011;45222;52.458;20.914;2023-03-12T21:45:24;22.00;;;9.80;;
59416;SDS011;45222;52.458;20.914;2023-03-12T21:49:09;23.70;;;9.20;;
59416;SDS011;45222;52.458;20.914;2023-03-12T21:52:56;32.30;;;15.90;;
59416;SDS011;45222;52.458;20.914;2023-03-12T21:56:41;24.70;;;9.50;;
59416;SDS011;45222;52.458;20.914;2023-03-12T22:00:26;25.20;;;14.90;;
59416;SDS011;45222;52.458;20.914;2023-03-12T22:04:12;22.30;;;8.80;;
59416;SDS011;45222;52.458;20.914;2023-03-12T22:07:57;23.90;;;8.90;;
59416;SDS011;45222;52.458;20.914;2023-03-12T22:11:42;19.60;;;8.30;;
59416;SDS011;45222;52.458;20.914;2023-03-12T22:15:28;24.70;;;15.80;;
59416;SDS011;45222;52.458;20.914;2023-03-12T22:19:13;23.40;;;15.10;;
59416;SDS011;45222;52.458;20.914;2023-03-12T22:22:58;23.10;;;9.50;;
59416;SDS011;45222;52.458;20.914;2023-03-12T22:26:44;24.00;;;11.00;;
59416;SDS011;45222;52.458;20.914;2023-03-12T22:30:29;25.50;;;17.40;;
59416;SDS011;45222;52.458;20.914;2023-03-12T22:34:14;28.10;;;10.40;;
59416;SDS011;45222;52.458;20.914;2023-03-12T22:37:59;27.20;;;19.00;;
59416;SDS011;45222;52.458;20.914;2023-03-12T22:41:46;24.40;;;9.90;;
59416;SDS011;45222;52.458;20.914;2023-03-12T22:45:33;24.40;;;10.80;;